1996 Severe Tropical Cyclone CORYNA:HUBERT (1996007S10100)


IBTrACS version v04r00. Visit IBTrACS website for data access.
Please direct all questions to the IBTrACS Q and A forum

Storm track - Intensity - Wind Radii - Intensity Data - Source Data - All data

Summary Information

Satellite image near maximum intensity
Storm ID 1996007S10100
Start Jan 6 22Z
Max Intensity 80 kt (Jan 9 07Z), 955 mb (Jan 9 07Z)
End Jan 12 13Z
ATCF IDs ,SH071996
Track status Best track data.

Storm track plot

Map of storm track

Intensity plots

Map of storm track

Radial wind information

Map of storm track

Position and Intensity Table

BASIN ISO_TIME_________ NATURE LAT LON WMO WIND WMO PRES USA WIND REUNION WIND REUNION PRES BOM WIND BOM PRES NEUMANN WIND
degrees north degrees east kts mb kts kts mb kts mb kts
SI 1996-01-06 22:00:00 NR -10.20 99.60 20 1006 20 1006
SI 1996-01-07 00:00:00 TS -10.38 99.22 20 23 1004 20
SI 01:00:00 TS -10.44 99.12 25 1004 20 25 1004 20
SI 03:00:00 TS -10.54 98.96 22 25 1002 22
SI 04:00:00 TS -10.60 98.89 25 1002 23 25 1002 23
SI 06:00:00 TS -10.68 98.73 25 28 1000 25
SI 07:00:00 TS -10.71 98.66 30 1000 26 30 1000 26
SI 09:00:00 TS -10.78 98.49 30 30 998 30
SI 10:00:00 TS -10.80 98.40 30 998 31 30 998 31
SI 12:00:00 TS -10.86 98.18 35 33 996 35
SI 13:00:00 TS -10.89 98.05 35 995 36 35 995 36
SI 15:00:00 TS -10.98 97.79 40 38 991 40
SI 16:00:00 TS -11.03 97.65 40 990 41 40 990 41
SI 18:00:00 TS -11.12 97.35 45 46 986 45
SI 19:00:00 TS -11.17 97.20 50 985 46 50 985 46
SI 21:00:00 TS -11.26 96.91 50 53 981 50
SI 22:00:00 TS -11.30 96.77 55 980 51 55 980 51
SI 1996-01-08 00:00:00 TS -11.39 96.50 55 58 976 55
SI 01:00:00 TS -11.43 96.37 60 975 55 60 975 55
SI 03:00:00 TS -11.51 96.08 57 63 971 57
SI 04:00:00 TS -11.56 95.94 65 970 58 65 970 58
SI 06:00:00 TS -11.70 95.64 60 65 970 60
SI 07:00:00 TS -11.77 95.49 65 970 60 65 970 60
SI 09:00:00 TS -11.90 95.20 62 68 966 62
SI 10:00:00 TS -11.96 95.03 70 965 63 70 965 63
SI 12:00:00 TS -12.11 94.64 65 70 965 65
SI 13:00:00 TS -12.19 94.45 70 965 65 70 965 65
SI 15:00:00 TS -12.39 94.09 67 70 965 67
SI 16:00:00 TS -12.49 93.91 70 965 68 70 965 68
SI 18:00:00 TS -12.72 93.56 70 70 965 70
SI 19:00:00 TS -12.83 93.38 70 965 70 70 965 70
SI 21:00:00 TS -13.03 93.00 72 73 961 72
SI 22:00:00 TS -13.13 92.81 75 960 73 75 960 73
SI 1996-01-09 00:00:00 TS -13.36 92.48 75 62 965 75 960 75
SI 01:00:00 TS -13.47 92.30 75 960 75 62 965 75 960 75
SI 03:00:00 TS -13.63 91.91 75 62 965 75 960 75
SI 04:00:00 TS -13.70 91.72 75 960 75 62 965 75 960 75
SI 06:00:00 TS -13.84 91.34 75 62 965 78 956 75
SI 07:00:00 TS -13.90 91.15 80 955 75 61 965 80 955 75
SI 09:00:00 TS -14.00 90.79 75 61 967 80 958 75
SI 10:00:00 TS -14.04 90.61 80 960 75 60 968 80 960 75
SI 12:00:00 TS -14.12 90.27 75 60 970 76 963 75
SI 13:00:00 TS -14.17 90.10 75 965 75 59 970 75 965 75
SI 15:00:00 TS -14.26 89.79 75 57 972 68 968 75
SI 16:00:00 TS -14.30 89.64 75 56 973 65 970 75
SI 18:00:00 TS -14.39 89.34 55 975 75 55 975 61 973 75
SI 19:00:00 TS -14.44 89.19 75 54 975 60 975 75
SI 21:00:00 TS -14.56 88.88 75 52 977 60 975 75
SI 22:00:00 TS -14.61 88.72 75 51 978 60 975 75
SI 1996-01-10 00:00:00 TS -14.71 88.42 50 980 75 50 980 56 978 75
SI 01:00:00 TS -14.75 88.27 74 49 980 55 980 74
SI 03:00:00 TS -14.81 87.97 72 47 982 55 980 72
SI 04:00:00 TS -14.83 87.82 71 46 983 55 980 71
SI 06:00:00 TS -14.86 87.50 45 985 70 45 985 51 983 70
SI 07:00:00 TS -14.87 87.34 68 44 985 50 985 68
SI 09:00:00 TS -14.85 86.96 65 42 986 50 985 65
SI 10:00:00 TS -14.82 86.77 63 41 986 50 985 63
SI 12:00:00 TS -14.78 86.43 40 987 60 40 987 43 988 60
SI 13:00:00 TS -14.75 86.26 58 39 987 40 990 58
SI 15:00:00 TS -14.66 85.88 55 37 989 40 990 55
SI 16:00:00 TS -14.62 85.68 53 36 989 40 990 53
SI 18:00:00 TS -14.53 85.29 35 991 50 35 991 40 990 50
SI 19:00:00 TS -14.50 85.10 49 34 991 40 990 49
SI 21:00:00 TS -14.43 84.70 47 32 993 40 990 47
SI 22:00:00 TS -14.40 84.51 46 31 993 40 990 46
SI 1996-01-11 00:00:00 TS -14.36 84.12 30 995 45 30 995 40 990 45
SI 01:00:00 TS -14.34 83.93 43 30 995 40 990 43
SI 03:00:00 TS -14.34 83.55 40 30 996 36 993 40
SI 04:00:00 TS -14.35 83.35 38 30 996 35 995 38
SI 06:00:00 TS -14.41 82.93 30 997 35 30 997 35 995 35
SI 07:00:00 TS -14.44 82.71 34 30 997 35 995 34
SI 09:00:00 TS -14.50 82.25 32 30 997 35 995 32
SI 10:00:00 TS -14.53 82.00 31 30 997 35 995 31
SI 12:00:00 TS -14.59 81.51 30 998 30 30 998 31 996 30
SI 13:00:00 TS -14.61 81.26 30 30 998 30 998 30
SI 15:00:00 TS -14.64 80.75 30 30 998 30 998 30
SI 16:00:00 TS -14.65 80.49 30 30 998 30 998 30
SI 18:00:00 TS -14.69 79.96 30 998 30 30 998 30 998 30
SI 19:00:00 TS -14.72 79.69 29 30 998 30 998 29
SI 21:00:00 TS -14.77 79.16 27 30 999 30 998 27
SI 22:00:00 TS -14.80 78.90 26 30 999 30 998 26
SI 1996-01-12 00:00:00 TS -14.90 78.42 30 1000 25 30 1000 30 999 25
SI 01:00:00 NR -15.00 78.30 30 1000
SI 03:00:00 NR -15.01 77.83 30 1000
SI 04:00:00 NR -15.00 77.60 30 1000
SI 06:00:00 NR -15.00 77.13 30 1000
SI 07:00:00 NR -15.00 76.90 30 1000
SI 09:00:00 NR -15.00 76.43 30 1000
SI 10:00:00 NR -15.00 76.20 30 1000
SI 12:00:00 NR -15.00 75.73 26 1002
SI 13:00:00 NR -15.00 75.50 25 1004

Source Information

Agency Information
USA bsh071996.txt
TOKYO
CMA
HKO
NEWDELHI
REUNION WMO-Best-Tracks.txt:Line=17304:coryna
BOM IDCKMSTM0S.csv:Line=18551:HUBERT
NADI
WELLINGTON
DS824
TD9636
TD9635
NEUMANN tracks.sh:Storm=1043:HUBERT/CORYN:A:BSH071996
MLC

All available IBTrACS Data

SEASON BASIN SUBBASIN ISO_TIME_________ NATURE LAT LON WMO WIND WMO PRES WMO AGENCY DIST2LAND LANDFALL IFLAG USA AGENCY USA ATCF_ID USA LAT USA LON USA WIND USA SSHS REUNION LAT REUNION LON REUNION TYPE REUNION WIND REUNION PRES REUNION TNUM REUNION CI BOM LAT BOM LON BOM TYPE BOM WIND BOM PRES BOM CI BOM ROCI BOM EYE BOM POS_METHOD BOM PRES_METHOD NEUMANN LAT NEUMANN LON NEUMANN CLASS NEUMANN WIND STORM SPEED STORM DIR
Year degrees north degrees east kts mb km km degrees north degrees east kts 1 degrees north degrees east kts mb 1 1 degrees north degrees east kts mb 1 nmile nmile degrees north degrees east kts kts degrees
1996 SI WA 1996-01-06 22:00:00 NR -10.20 99.60 20 1006 bom 724 724 ______O_______ -1 -10.20 99.60 20 20 1006 1.50 161 3 5 12 244
1996 SI WA 1996-01-07 00:00:00 TS -10.38 99.22 773 773 O_____P_____O_ jtwc_sh SH071996 -10.50 99.20 20 -1 -10.26 99.25 20 23 1004 161 -10.50 99.20 TC 20 11 243
1996 SI WA 01:00:00 TS -10.44 99.12 25 1004 bom 779 779 P_____O_____P_ SH071996 -10.54 99.13 20 -1 -10.30 99.10 20 25 1004 2.00 161 3 5 -10.54 99.13 TC 20 6 238
1996 SI WA 03:00:00 TS -10.54 98.96 795 795 P_____P_____P_ SH071996 -10.62 99.00 22 -1 -10.43 98.89 20 25 1002 161 -10.62 99.00 TC 22 6 235
1996 SI WA 04:00:00 TS -10.60 98.89 25 1002 bom 810 810 P_____O_____P_ SH071996 -10.65 98.93 23 -1 -10.50 98.80 20 25 1002 2.00 161 3 5 -10.65 98.93 TC 23 5 238
1996 SI WA 06:00:00 TS -10.68 98.73 833 833 O_____P_____O_ jtwc_sh SH071996 -10.70 98.80 25 -1 -10.63 98.60 20 28 1000 161 -10.70 98.80 TC 25 5 244
1996 SI WA 07:00:00 TS -10.71 98.66 30 1000 bom 833 833 P_____O_____P_ SH071996 -10.72 98.73 26 -1 -10.70 98.50 20 30 1000 2.50 161 3 5 -10.72 98.73 TC 26 5 247
1996 SI WA 09:00:00 TS -10.78 98.49 855 855 P_____P_____P_ SH071996 -10.74 98.59 30 -1 -10.84 98.31 20 30 998 161 -10.74 98.59 TC 30 5 249
1996 SI WA 10:00:00 TS -10.80 98.40 30 998 bom 862 862 P_____O_____P_ SH071996 -10.76 98.50 31 -1 -10.90 98.20 20 30 998 2.50 161 3 5 -10.76 98.50 TC 31 6 255
1996 SI WA 12:00:00 TS -10.86 98.18 884 884 O_____P_____O_ jtwc_sh SH071996 -10.80 98.30 35 0 -10.97 97.93 20 33 996 161 -10.80 98.30 TC 35 7 256
1996 SI WA 13:00:00 TS -10.89 98.05 35 995 bom 897 897 P_____O_____P_ SH071996 -10.84 98.17 36 0 -11.00 97.80 30 35 995 3.00 161 3 5 -10.84 98.17 TC 36 8 252
1996 SI WA 15:00:00 TS -10.98 97.79 919 919 P_____P_____P_ SH071996 -10.94 97.88 40 0 -11.07 97.60 30 38 991 161 -10.94 97.88 TC 40 8 251
1996 SI WA 16:00:00 TS -11.03 97.65 40 990 bom 933 933 P_____O_____P_ SH071996 -10.99 97.72 41 0 -11.10 97.50 30 40 990 3.00 161 3 5 -10.99 97.72 TC 41 9 252
1996 SI WA 18:00:00 TS -11.12 97.35 963 963 O_____P_____O_ jtwc_sh SH071996 -11.10 97.40 45 0 -11.17 97.24 30 46 986 161 -11.10 97.40 TC 45 9 252
1996 SI WA 19:00:00 TS -11.17 97.20 50 985 bom 978 978 P_____O_____P_ SH071996 -11.15 97.25 46 0 -11.20 97.10 30 50 985 3.50 161 3 5 -11.15 97.25 TC 46 9 253
1996 SI WA 21:00:00 TS -11.26 96.91 1008 1008 P_____P_____P_ SH071996 -11.25 96.95 50 0 -11.27 96.83 30 53 981 161 -11.25 96.95 TC 50 9 253
1996 SI WA 22:00:00 TS -11.30 96.77 55 980 bom 1015 1015 P_____O_____P_ SH071996 -11.30 96.80 51 0 -11.30 96.70 30 55 980 4.00 161 3 5 -11.30 96.80 TC 51 8 252
1996 SI WA 1996-01-08 00:00:00 TS -11.39 96.50 1046 1046 O_____P_____O_ jtwc_sh SH071996 -11.40 96.50 55 0 -11.37 96.50 30 58 976 161 -11.40 96.50 TC 55 8 251
1996 SI WA 01:00:00 TS -11.43 96.37 60 975 bom 1053 1053 P_____O_____P_ SH071996 -11.45 96.35 55 0 -11.40 96.40 30 60 975 4.00 161 3 5 -11.45 96.35 TC 55 9 253
1996 SI WA 03:00:00 TS -11.51 96.08 1082 1082 P_____P_____P_ SH071996 -11.54 96.06 57 0 -11.45 96.14 30 63 971 161 -11.54 96.06 TC 57 9 253
1996 SI WA 04:00:00 TS -11.56 95.94 65 970 bom 1105 1105 P_____O_____P_ SH071996 -11.59 95.91 58 0 -11.50 96.00 40 65 970 4.50 161 4 4 5 -11.59 95.91 TC 58 9 247
1996 SI WA 06:00:00 TS -11.70 95.64 1135 1135 O_____P_____O_ jtwc_sh SH071996 -11.70 95.60 60 0 -11.70 95.73 40 65 970 161 -11.70 95.60 TC 60 10 244
1996 SI WA 07:00:00 TS -11.77 95.49 65 970 bom 1150 1150 P_____O_____P_ SH071996 -11.76 95.44 60 0 -11.80 95.60 40 65 970 4.50 161 3 4 5 -11.76 95.44 TC 60 10 246
1996 SI WA 09:00:00 TS -11.90 95.20 1180 1180 P_____P_____P_ SH071996 -11.88 95.11 62 0 -11.94 95.36 40 68 966 161 -11.88 95.11 TC 62 10 247
1996 SI WA 10:00:00 TS -11.96 95.03 70 965 bom 1203 1203 P_____O_____P_ SH071996 -11.95 94.95 63 0 -12.00 95.20 40 70 965 4.50 161 3 5 -11.95 94.95 TC 63 12 249
1996 SI WA 12:00:00 TS -12.11 94.64 1241 1241 O_____P_____O_ jtwc_sh SH071996 -12.10 94.60 65 1 -12.13 94.73 40 70 965 178 -12.10 94.60 TC 65 12 248
1996 SI WA 13:00:00 TS -12.19 94.45 70 965 bom 1264 1264 P_____O_____P_ SH071996 -12.19 94.42 65 1 -12.20 94.50 40 70 965 4.50 188 3 4 5 -12.19 94.42 TC 65 12 243
1996 SI WA 15:00:00 TS -12.39 94.09 1303 1303 P_____P_____P_ SH071996 -12.38 94.06 67 1 -12.39 94.16 40 70 965 188 -12.38 94.06 TC 67 12 240
1996 SI WA 16:00:00 TS -12.49 93.91 70 965 bom 1327 1327 P_____O_____P_ SH071996 -12.49 93.87 68 1 -12.50 94.00 40 70 965 4.50 188 3 5 -12.49 93.87 TC 68 12 237
1996 SI WA 18:00:00 TS -12.72 93.56 1363 1363 O_____P_____O_ jtwc_sh SH071996 -12.70 93.50 70 1 -12.77 93.67 40 70 965 188 -12.70 93.50 TC 70 13 237
1996 SI WA 19:00:00 TS -12.83 93.38 70 965 bom 1383 1383 P_____O_____P_ SH071996 -12.80 93.32 70 1 -12.90 93.50 40 70 965 4.50 188 3 5 -12.80 93.32 TC 70 13 240
1996 SI WA 21:00:00 TS -13.03 93.00 1423 1423 P_____P_____P_ SH071996 -13.00 92.95 72 1 -13.10 93.10 40 73 961 188 -13.00 92.95 TC 72 13 241
1996 SI WA 22:00:00 TS -13.13 92.81 75 960 bom 1443 1443 P_____O_____P_ SH071996 -13.10 92.77 73 1 -13.20 92.90 40 75 960 4.50 188 3 5 -13.10 92.77 TC 73 12 237
1996 SI WA 1996-01-09 00:00:00 TS -13.36 92.48 1488 1488 O____OP_____O_ jtwc_sh SH071996 -13.30 92.40 75 1 -13.40 92.70 3 62 965 4.50 4.50 -13.48 92.57 40 75 960 188 -13.30 92.40 TC 75 12 236
1996 SI WA 01:00:00 TS -13.47 92.30 75 960 bom 1508 1508 P____PO_____P_ SH071996 -13.41 92.21 75 1 -13.47 92.46 3 62 965 -13.60 92.40 40 75 960 4.50 188 3 4 5 -13.41 92.21 TC 75 12 244
1996 SI WA 03:00:00 TS -13.63 91.91 1539 1539 P____PP_____P_ SH071996 -13.61 91.84 75 1 -13.61 92.00 3 62 965 -13.68 92.00 40 75 960 188 -13.61 91.84 TC 75 12 248
1996 SI WA 04:00:00 TS -13.70 91.72 75 960 bom 1560 1560 P____PO_____P_ SH071996 -13.72 91.66 75 1 -13.68 91.76 3 62 965 -13.70 91.80 40 75 960 4.50 188 3 5 -13.72 91.66 TC 75 12 249
1996 SI WA 06:00:00 TS -13.84 91.34 1592 1592 O____OP_____O_ jtwc_sh SH071996 -13.90 91.30 75 1 -13.80 91.30 3 62 965 4.00 4.50 -13.77 91.46 40 78 956 188 -13.90 91.30 TC 75 12 250
1996 SI WA 07:00:00 TS -13.90 91.15 80 955 bom 1608 1608 P____PO_____P_ SH071996 -13.98 91.12 75 1 -13.86 91.07 3 61 965 -13.80 91.30 40 80 955 4.50 188 3 5 -13.98 91.12 TC 75 11 254
1996 SI WA 09:00:00 TS -14.00 90.79 1640 1640 P____PP_____P_ SH071996 -14.12 90.78 75 1 -13.96 90.63 3 61 967 -13.81 90.97 40 80 958 188 -14.12 90.78 TC 75 11 255
1996 SI WA 10:00:00 TS -14.04 90.61 80 960 bom 1653 1653 P____PO_____P_ SH071996 -14.19 90.61 75 1 -14.01 90.41 3 60 968 -13.80 90.80 40 80 960 4.50 188 3 5 -14.19 90.61 TC 75 10 257
1996 SI WA 12:00:00 TS -14.12 90.27 1680 1680 O____OP_____O_ jtwc_sh SH071996 -14.30 90.30 75 1 -14.10 90.00 3 60 970 3.50 4.50 -13.79 90.47 40 76 963 188 -14.30 90.30 TC 75 10 256
1996 SI WA 13:00:00 TS -14.17 90.10 75 965 bom 1702 1702 P____PO_____P_ SH071996 -14.36 90.16 75 1 -14.15 89.80 3 59 970 -13.80 90.30 40 75 965 4.50 188 3 5 -14.36 90.16 TC 75 10 254
1996 SI MM 15:00:00 TS -14.26 89.79 1730 1730 P____PP_____P_ SH071996 -14.46 89.89 75 1 -14.25 89.42 3 57 972 -13.86 89.97 40 68 968 170 -14.46 89.89 TC 75 9 253
1996 SI MM 16:00:00 TS -14.30 89.64 1743 1743 P____PO_____P_ SH071996 -14.51 89.76 75 1 -14.30 89.24 3 56 973 -13.90 89.80 40 65 970 4.50 161 3 5 -14.51 89.76 TC 75 9 253
1996 SI MM 18:00:00 TS -14.39 89.34 55 975 reunion 1771 1771 O____OP_____O_ jtwc_sh SH071996 -14.60 89.50 75 1 -14.40 88.90 3 55 975 3.50 4.00 -13.96 89.47 40 61 973 161 -14.60 89.50 TC 75 9 252
1996 SI MM 19:00:00 TS -14.44 89.19 1778 1778 P____PO_____P_ SH071996 -14.66 89.36 75 1 -14.46 88.73 3 54 975 -14.00 89.30 30 60 975 5.00 161 3 5 -14.66 89.36 TC 75 10 250
1996 SI MM 21:00:00 TS -14.56 88.88 1815 1815 P____PP_____P_ SH071996 -14.76 89.07 75 1 -14.57 88.41 3 52 977 -14.13 88.97 30 60 975 161 -14.76 89.07 TC 75 10 249
1996 SI MM 22:00:00 TS -14.61 88.72 1828 1828 P____PO_____P_ SH071996 -14.82 88.91 75 1 -14.62 88.26 3 51 978 -14.20 88.80 30 60 975 5.00 161 3 5 -14.82 88.91 TC 75 9 251
1996 SI MM 1996-01-10 00:00:00 TS -14.71 88.42 50 980 reunion 1858 1858 O____OP_____O_ jtwc_sh SH071996 -14.90 88.60 75 1 -14.70 88.00 3 50 980 3.50 4.00 -14.33 88.47 30 56 978 161 -14.90 88.60 TC 75 9 253
1996 SI MM 01:00:00 TS -14.75 88.27 1864 1864 P____PO_____P_ SH071996 -14.94 88.44 74 1 -14.72 87.91 3 49 980 -14.40 88.30 30 55 980 4.50 161 3 5 -14.94 88.44 TC 74 9 257
1996 SI MM 03:00:00 TS -14.81 87.97 1894 1894 P____PP_____P_ SH071996 -14.99 88.11 72 1 -14.72 87.76 3 47 982 -14.53 87.91 30 55 980 143 -14.99 88.11 TC 72 9 259
1996 SI MM 04:00:00 TS -14.83 87.82 1908 1908 P____PO_____P_ SH071996 -15.00 87.94 71 1 -14.72 87.68 3 46 983 -14.60 87.70 30 55 980 4.50 134 3 5 -15.00 87.94 TC 71 9 263
1996 SI MM 06:00:00 TS -14.86 87.50 45 985 reunion 1937 1937 O____OP_____O_ jtwc_sh SH071996 -15.00 87.60 70 1 -14.70 87.50 3 45 985 3.00 3.50 -14.75 87.32 30 51 983 134 -15.00 87.60 TC 70 9 265
1996 SI MM 07:00:00 TS -14.87 87.34 1952 1952 P____PO_____P_ SH071996 -14.99 87.44 68 1 -14.71 87.37 3 44 985 -14.80 87.10 30 50 985 4.00 134 4 5 -14.99 87.44 TC 68 11 272
1996 SI MM 09:00:00 TS -14.85 86.96 1965 1965 P____PP_____P_ SH071996 -14.93 87.11 65 1 -14.71 87.06 3 42 986 -14.81 86.55 30 50 985 134 -14.93 87.11 TC 65 11 275
1996 SI MM 10:00:00 TS -14.82 86.77 1980 1980 P____PO_____P_ SH071996 -14.89 86.94 63 0 -14.72 86.88 3 41 986 -14.80 86.30 30 50 985 4.00 134 4 5 -14.89 86.94 TC 63 10 278
1996 SI MM 12:00:00 TS -14.78 86.43 40 987 reunion 2009 2009 O____OP_____O_ jtwc_sh SH071996 -14.80 86.60 60 0 -14.70 86.50 3 40 987 2.50 3.50 -14.81 86.03 30 43 988 134 -14.80 86.60 TC 60 10 279
1996 SI MM 13:00:00 TS -14.75 86.26 2009 2009 P____PO_____P_ SH071996 -14.75 86.42 58 0 -14.68 86.30 3 39 987 -14.80 85.90 30 40 990 4.00 134 3 5 -14.75 86.42 TC 58 11 282
1996 SI MM 15:00:00 TS -14.66 85.88 2040 2039 P____PP_____P_ SH071996 -14.65 86.06 55 0 -14.61 85.87 3 37 989 -14.74 85.50 30 40 990 116 -14.65 86.06 TC 55 12 283
1996 SI MM 16:00:00 TS -14.62 85.68 2047 2047 P____PO_____P_ SH071996 -14.60 85.88 53 0 -14.57 85.65 3 36 989 -14.70 85.30 30 40 990 4.00 107 3 5 -14.60 85.88 TC 53 12 283
1996 SI MM 18:00:00 TS -14.53 85.29 35 991 reunion 2071 2071 O____OP_____O_ jtwc_sh SH071996 -14.50 85.50 50 0 -14.50 85.20 3 35 991 2.50 3.00 -14.63 84.96 30 40 990 107 -14.50 85.50 TC 50 11 282
1996 SI MM 19:00:00 TS -14.50 85.10 2087 2087 P____PO_____P_ SH071996 -14.46 85.31 49 0 -14.47 84.98 3 34 991 -14.60 84.80 30 40 990 3.50 107 3 5 -14.46 85.31 TC 49 12 280
1996 SI MM 21:00:00 TS -14.43 84.70 2112 2112 P____PP_____P_ SH071996 -14.38 84.91 47 0 -14.43 84.53 3 32 993 -14.53 84.47 30 40 990 107 -14.38 84.91 TC 47 12 279
1996 SI MM 22:00:00 TS -14.40 84.51 2128 2128 P____PO_____P_ SH071996 -14.35 84.71 46 0 -14.41 84.32 3 31 993 -14.50 84.30 30 40 990 3.50 107 3 5 -14.35 84.71 TC 46 11 277
1996 SI MM 1996-01-11 00:00:00 TS -14.36 84.12 30 995 reunion 2161 2161 O____OP_____O_ jtwc_sh SH071996 -14.30 84.30 45 0 -14.40 83.90 2 30 995 2.50 2.50 -14.43 83.97 30 40 990 107 -14.30 84.30 TC 45 11 276
1996 SI MM 01:00:00 TS -14.34 83.93 2170 2170 P____PO_____P_ SH071996 -14.28 84.11 43 0 -14.41 83.71 2 30 995 -14.40 83.80 30 40 990 3.00 107 4 5 -14.28 84.11 TC 43 11 272
1996 SI MM 03:00:00 TS -14.34 83.55 2196 2196 P____PP_____P_ SH071996 -14.27 83.72 40 0 -14.43 83.35 2 30 996 -14.38 83.41 30 36 993 107 -14.27 83.72 TC 40 11 269
1996 SI MM 04:00:00 TS -14.35 83.35 2219 2219 P____PO_____P_ SH071996 -14.27 83.52 38 0 -14.46 83.17 2 30 996 -14.40 83.20 30 35 995 3.00 107 4 5 -14.27 83.52 TC 38 12 263
1996 SI MM 06:00:00 TS -14.41 82.93 30 997 reunion 2262 2262 O____OP_____O_ jtwc_sh SH071996 -14.30 83.10 35 0 -14.50 82.80 2 30 997 2.00 2.50 -14.53 82.74 30 35 995 107 -14.30 83.10 TC 35 13 262
1996 SI MM 07:00:00 TS -14.44 82.71 2279 2279 P____PO_____P_ SH071996 -14.32 82.87 34 0 -14.52 82.61 2 30 997 -14.60 82.50 30 35 995 3.00 107 4 5 -14.32 82.87 TC 34 14 262
1996 SI MM 09:00:00 TS -14.50 82.25 2292 2290 P____PP_____P_ SH071996 -14.39 82.37 32 -1 -14.55 82.20 2 30 997 -14.67 82.03 30 35 995 107 -14.39 82.37 TC 32 14 262
1996 SI MM 10:00:00 TS -14.53 82.00 2290 2289 P____PO_____P_ SH071996 -14.43 82.12 31 -1 -14.57 81.98 2 30 997 -14.70 81.80 30 35 995 3.00 107 3 5 -14.43 82.12 TC 31 14 263
1996 SI MM 12:00:00 TS -14.59 81.51 30 998 reunion 2298 2297 O____OP_____O_ jtwc_sh SH071996 -14.50 81.60 30 -1 -14.60 81.50 2 30 998 1.50 2.50 -14.77 81.33 30 31 996 107 -14.50 81.60 TC 30 15 263
1996 SI MM 13:00:00 TS -14.61 81.26 2297 2296 P____PO_____P_ SH071996 -14.52 81.35 30 -1 -14.61 81.23 2 30 998 -14.80 81.10 20 30 998 3.00 107 3 5 -14.52 81.35 TC 30 15 267
1996 SI MM 15:00:00 TS -14.64 80.75 2296 2296 P____PP_____P_ SH071996 -14.56 80.86 30 -1 -14.63 80.64 2 30 998 -14.80 80.63 20 30 998 107 -14.56 80.86 TC 30 15 267
1996 SI MM 16:00:00 TS -14.65 80.49 2296 2296 P____PO_____P_ SH071996 -14.57 80.61 30 -1 -14.65 80.33 2 30 998 -14.80 80.40 20 30 998 3.00 107 3 5 -14.57 80.61 TC 30 15 266
1996 SI MM 18:00:00 TS -14.69 79.96 30 998 reunion 2308 2308 O____OP_____O_ jtwc_sh SH071996 -14.60 80.10 30 -1 -14.70 79.70 2 30 998 2.00 2.50 -14.87 79.93 20 30 998 107 -14.60 80.10 TC 30 15 265
1996 SI MM 19:00:00 TS -14.72 79.69 2309 2309 P____PO_____P_ SH071996 -14.62 79.84 29 -1 -14.74 79.38 2 30 998 -14.90 79.70 20 30 998 3.00 107 3 5 -14.62 79.84 TC 29 16 265
1996 SI MM 21:00:00 TS -14.77 79.16 2324 2318 P____PP_____P_ SH071996 -14.65 79.31 27 -1 -14.83 78.75 2 30 999 -14.90 79.23 20 30 998 107 -14.65 79.31 TC 27 15 264
1996 SI MM 22:00:00 TS -14.80 78.90 2318 2263 P____PO_____P_ SH071996 -14.67 79.04 26 -1 -14.88 78.43 2 30 999 -14.90 79.00 20 30 998 3.00 107 3 5 -14.67 79.04 TC 26 15 260
1996 SI MM 1996-01-12 00:00:00 TS -14.90 78.42 30 1000 reunion 2263 2250 O____OP_____O_ jtwc_sh SH071996 -14.70 78.50 25 -1 -15.00 77.80 2 30 1000 2.00 2.00 -14.97 78.53 20 30 999 89 -14.70 78.50 TC 25 12 251
1996 SI MM 01:00:00 NR -15.00 78.30 2250 2209 ______O_______ SH071996 -1 2 -15.00 78.30 20 30 1000 2.50 80 1 5 TC 12 259
1996 SI MM 03:00:00 NR -15.01 77.83 2199 2178 ______P_______ SH071996 -1 2 -15.01 77.83 20 30 1000 80 TC 14 270
1996 SI MM 04:00:00 NR -15.00 77.60 2178 2138 ______O_______ SH071996 -1 2 -15.00 77.60 20 30 1000 2.50 80 1 5 TC 14 270
1996 SI MM 06:00:00 NR -15.00 77.13 2127 2107 ______P_______ -1 -15.00 77.13 20 30 1000 80 14 270
1996 SI MM 07:00:00 NR -15.00 76.90 2107 2066 ______O_______ -1 -15.00 76.90 20 30 1000 2.50 80 1 5 14 270
1996 SI MM 09:00:00 NR -15.00 76.43 2056 2036 ______P_______ -1 -15.00 76.43 20 30 1000 80 14 270
1996 SI MM 10:00:00 NR -15.00 76.20 2036 1996 ______O_______ -1 -15.00 76.20 20 30 1000 2.50 80 1 5 14 270
1996 SI MM 12:00:00 NR -15.00 75.73 1986 1965 ______P_______ -1 -15.00 75.73 20 26 1002 80 14 270
1996 SI MM 13:00:00 NR -15.00 75.50 1965 ______O_______ -1 -15.00 75.50 20 25 1004 2.50 80 1 5 14 270